Time;durP1;ratioP1;P1;durP2;ratioP2;P2;SDS_P1;SDS_P2;PMS_P1;PMS_P2;Temp;Humidity;BMP_temperature;BMP_pressure;BME280_temperature;BME280_humidity;BME280_pressure;Samples;Min_cycle;Max_cycle;Signal;HPM_P1;HPM_P2
2022/06/28 00:01:41;;;;;;;4.80;2.27;;;;;;;21.45;71.96;100093.97;6269626;28;20406;-70
2022/06/28 00:04:41;;;;;;;4.97;2.40;;;;;;;21.47;71.37;100092.00;6302819;28;20039;-70
2022/06/28 00:07:43;;;;;;;4.57;2.40;;;;;;;21.47;73.67;100092.00;6269488;28;20044;-70
2022/06/28 00:10:43;;;;;;;3.05;2.20;;;;;;;21.45;71.94;100093.97;6320790;28;20487;-70
2022/06/28 00:13:44;;;;;;;8.97;2.60;;;;;;;21.42;73.55;100103.09;6286125;28;20039;-70
2022/06/28 00:16:46;;;;;;;8.57;2.40;;;;;;;21.39;72.29;100094.59;6302837;28;20059;-70
2022/06/28 00:19:47;;;;;;;4.05;2.20;;;;;;;21.30;76.97;100094.56;6302671;28;20139;-70
2022/06/28 00:22:53;;;;;;;4.57;2.10;;;;;;;21.21;77.07;100084.94;6303206;28;20470;-70
2022/06/28 00:25:56;;;;;;;6.10;1.95;;;;;;;21.15;75.78;100082.94;6341716;28;20075;-69
2022/06/28 00:28:57;;;;;;;6.65;2.20;;;;;;;21.13;75.45;100082.28;6337358;28;20075;-70
2022/06/28 00:32:00;;;;;;;6.07;2.20;;;;;;;21.08;76.39;100084.56;6288509;28;20187;-70
2022/06/28 00:35:02;;;;;;;10.13;2.05;;;;;;;21.07;76.88;100088.22;6327532;28;20036;-69
2022/06/28 00:38:03;;;;;;;4.38;2.13;;;;;;;21.03;78.07;100087.69;6343677;28;20096;-70
2022/06/28 00:41:04;;;;;;;4.73;1.93;;;;;;;21.02;77.06;100087.84;6302304;28;20040;-69
2022/06/28 00:44:05;;;;;;;3.53;2.20;;;;;;;20.97;77.13;100068.97;6285708;28;20173;-70
2022/06/28 00:47:09;;;;;;;2.72;2.20;;;;;;;20.97;76.14;100068.97;6304569;28;20056;-70
2022/06/28 00:50:11;;;;;;;5.18;2.25;;;;;;;20.91;77.10;100073.91;6327787;28;20051;-69
2022/06/28 00:53:13;;;;;;;;;;;;;;;20.87;77.73;100074.38;6311257;28;20040;-69
2022/06/28 00:56:14;;;;;;;5.90;2.55;;;;;;;20.86;78.20;100075.38;6345522;28;20305;-70
2022/06/28 00:59:17;;;;;;;3.50;1.90;;;;;;;20.82;79.67;100080.16;6327790;28;20044;-69
2022/06/28 01:02:21;;;;;;;6.03;2.10;;;;;;;20.72;77.80;100069.69;6315784;28;20054;-69
2022/06/28 01:05:21;;;;;;;2.30;1.80;;;;;;;20.74;77.95;100072.19;6298993;28;20059;-69
2022/06/28 01:08:25;;;;;;;6.53;2.30;;;;;;;20.71;77.46;100053.91;6327333;28;20072;-69
2022/06/28 01:11:28;;;;;;;4.10;2.05;;;;;;;20.64;77.07;100061.69;6306991;28;20410;-69
2022/06/28 01:14:31;;;;;;;2.80;1.90;;;;;;;20.63;77.92;100065.34;6290346;28;20040;-70
2022/06/28 01:17:32;;;;;;;4.40;2.20;;;;;;;20.56;76.04;100076.69;6306320;28;20048;-70
2022/06/28 01:20:34;;;;;;;4.65;2.15;;;;;;;20.52;79.01;100073.53;6306297;28;20051;-70
2022/06/28 01:23:35;;;;;;;3.03;2.30;;;;;;;20.45;80.02;100070.69;6324325;28;20413;-69
2022/06/28 01:26:36;;;;;;;3.07;2.00;;;;;;;20.37;81.57;100075.09;6289593;28;20181;-69
2022/06/28 01:29:37;;;;;;;6.93;2.10;;;;;;;20.31;82.20;100072.06;6324078;28;20040;-69
2022/06/28 01:32:38;;;;;;;5.00;2.47;;;;;;;20.29;84.58;100084.66;6306033;28;20040;-71
2022/06/28 01:35:39;;;;;;;2.40;1.80;;;;;;;20.27;84.63;100069.91;6349123;28;20043;-70
2022/06/28 01:38:41;;;;;;;3.97;2.10;;;;;;;20.28;83.63;100075.06;6331140;28;20085;-70
2022/06/28 01:41:43;;;;;;;2.88;2.10;;;;;;;20.25;83.27;100074.53;6330916;28;20165;-70
2022/06/28 01:44:47;;;;;;;6.55;2.60;;;;;;;20.20;84.34;100072.34;6330604;28;20052;-70
2022/06/28 01:47:49;;;;;;;6.70;2.25;;;;;;;20.25;79.69;100067.41;6348824;28;20085;-71
2022/06/28 01:50:52;;;;;;;3.77;2.17;;;;;;;20.31;79.70;100069.44;6330892;28;20040;-70
2022/06/28 01:53:53;;;;;;;12.77;2.35;;;;;;;20.31;80.36;100069.44;6330787;28;20280;-71
2022/06/28 01:56:57;;;;;;;3.97;2.83;;;;;;;20.25;82.71;100078.00;6349059;28;20047;-70
2022/06/28 01:59:58;;;;;;;6.25;2.17;;;;;;;20.23;83.52;100072.03;6348753;28;20410;-70
2022/06/28 02:02:59;;;;;;;4.07;2.17;;;;;;;20.18;82.82;100076.13;6313723;28;20082;-69
2022/06/28 02:06:00;;;;;;;4.40;2.50;;;;;;;20.15;82.04;100079.09;6339361;28;20059;-70
2022/06/28 02:09:03;;;;;;;5.03;2.30;;;;;;;20.09;82.42;100080.53;6323276;28;20119;-70
2022/06/28 02:12:05;;;;;;;9.75;2.38;;;;;;;20.08;82.84;100082.34;6304961;28;20036;-70
2022/06/28 02:15:06;;;;;;;6.77;2.43;;;;;;;20.05;85.48;100090.59;6323065;28;20051;-70
2022/06/28 02:18:07;;;;;;;5.35;2.10;;;;;;;20.01;85.38;100085.78;6288621;28;20093;-70
2022/06/28 02:21:08;;;;;;;3.15;2.47;;;;;;;19.92;87.04;100087.53;6304892;28;20044;-70
2022/06/28 02:24:10;;;;;;;6.87;2.60;;;;;;;19.90;88.31;100073.63;6271700;28;20098;-70
2022/06/28 02:27:11;;;;;;;;;;;;;;;19.89;87.32;100079.88;6323061;28;20759;-71
2022/06/28 02:30:12;;;;;;;3.08;2.10;;;;;;;19.84;88.06;100084.81;6304718;28;19993;-69
2022/06/28 02:33:13;;;;;;;3.40;2.10;;;;;;;19.84;85.55;100087.47;6304768;28;20044;-70
2022/06/28 02:42:55;;;;;;;3.45;2.40;;;;;;;19.73;84.24;100097.31;6293028;28;20070;-69
2022/06/28 02:45:56;;;;;;;3.83;2.10;;;;;;;19.71;84.82;100107.22;6321988;28;20083;-70
2022/06/28 02:48:57;;;;;;;6.23;2.37;;;;;;;19.62;82.32;100108.09;6304359;28;20413;-69
2022/06/28 02:51:57;;;;;;;5.43;2.13;;;;;;;19.67;83.85;100111.09;6287603;28;20043;-69
2022/06/28 02:54:58;;;;;;;7.20;2.20;;;;;;;19.68;85.77;100117.22;6287524;28;20115;-69
2022/06/28 02:58:02;;;;;;;9.53;2.53;;;;;;;19.67;87.81;100127.00;6322410;28;20040;-70
2022/06/28 03:01:04;;;;;;;3.42;2.20;;;;;;;19.67;87.87;100112.94;6321847;28;20089;-70
2022/06/28 03:04:05;;;;;;;4.87;2.10;;;;;;;19.67;88.26;100116.41;6303983;28;20064;-70
2022/06/28 03:07:05;;;;;;;5.27;2.40;;;;;;;19.65;89.64;100128.13;6303684;28;20248;-70
2022/06/28 03:10:07;;;;;;;6.50;2.40;;;;;;;19.68;89.85;100127.81;6303884;28;20118;-70
2022/06/28 03:13:08;;;;;;;;;;;;;;;19.67;90.07;100119.06;6322164;28;20413;-69
2022/06/28 03:16:09;;;;;;;3.53;2.15;;;;;;;19.66;90.41;100130.63;6303604;28;19920;-69
2022/06/28 03:19:10;;;;;;;6.77;2.40;;;;;;;19.69;88.41;100126.84;6287027;28;20047;-70
2022/06/28 03:22:11;;;;;;;4.43;2.33;;;;;;;19.65;87.81;100123.66;6270382;28;20047;-70
2022/06/28 03:25:12;;;;;;;5.13;2.00;;;;;;;19.66;86.06;100127.13;6320661;28;20405;-69
2022/06/28 03:28:13;;;;;;;3.27;2.27;;;;;;;19.68;85.78;100133.97;6303318;28;20036;-70
2022/06/28 03:31:13;;;;;;;2.73;2.10;;;;;;;19.72;84.75;100139.78;6303366;28;20508;-70
2022/06/28 03:34:16;;;;;;;4.22;2.15;;;;;;;19.79;87.57;100145.31;6286824;28;20145;-69
2022/06/28 03:37:19;;;;;;;5.20;2.53;;;;;;;19.84;87.07;100143.88;6321210;28;20410;-69
2022/06/28 03:40:20;;;;;;;3.58;2.40;;;;;;;19.87;87.46;100140.09;6286823;28;20044;-69
2022/06/28 03:43:21;;;;;;;7.30;2.90;;;;;;;19.88;87.71;100139.94;6286482;28;20067;-70
2022/06/28 03:46:24;;;;;;;8.53;2.50;;;;;;;19.91;87.95;100146.75;6285905;28;20402;-70
2022/06/28 03:49:25;;;;;;;8.82;2.35;;;;;;;19.92;87.79;100143.13;6287262;28;20042;-70
2022/06/28 03:52:29;;;;;;;3.93;2.10;;;;;;;19.98;88.21;100142.53;6302975;28;20040;-70
2022/06/28 03:55:30;;;;;;;5.15;2.33;;;;;;;19.97;87.50;100147.97;6320781;28;20118;-70
2022/06/28 03:58:31;;;;;;;3.60;2.47;;;;;;;20.01;87.45;100144.03;6320920;28;20528;-70
2022/06/28 04:01:32;;;;;;;6.47;2.50;;;;;;;20.09;88.29;100150.22;6302844;28;20043;-69
2022/06/28 04:04:33;;;;;;;3.47;2.30;;;;;;;20.12;87.47;100149.94;6286437;28;20040;-70
2022/06/28 04:07:34;;;;;;;9.63;2.13;;;;;;;20.17;88.40;100154.75;6286116;28;20051;-70
2022/06/28 04:10:35;;;;;;;9.07;2.13;;;;;;;20.23;86.83;100151.50;6286174;28;20044;-69
2022/06/28 04:13:40;;;;;;;6.33;2.87;;;;;;;20.32;87.60;100147.94;6320743;28;20040;-69
2022/06/28 04:16:41;;;;;;;7.15;2.40;;;;;;;20.44;85.95;100150.31;6320539;28;20048;-69
2022/06/28 04:19:42;;;;;;;4.28;2.40;;;;;;;20.54;87.15;100146.59;6320557;28;20051;-69
2022/06/28 04:22:45;;;;;;;4.30;2.20;;;;;;;20.57;86.16;100149.91;6285943;28;20044;-69
2022/06/28 04:25:46;;;;;;;7.10;2.50;;;;;;;20.65;86.54;100148.19;6286136;28;20085;-69
2022/06/28 04:28:47;;;;;;;6.10;2.33;;;;;;;20.71;86.68;100146.72;6302456;28;20436;-69
2022/06/28 04:31:48;;;;;;;5.47;2.83;;;;;;;20.75;86.93;100145.41;6302551;28;20040;-69
2022/06/28 04:34:50;;;;;;;2.95;2.15;;;;;;;20.83;85.05;100155.25;6321503;28;20036;-70
2022/06/28 04:37:50;;;;;;;10.47;2.90;;;;;;;20.90;85.50;100151.81;6274100;28;20051;-69
2022/06/28 04:40:51;;;;;;;8.50;2.80;;;;;;;20.98;85.54;100163.44;6307118;28;20052;-70
2022/06/28 04:43:56;;;;;;;3.43;2.60;;;;;;;21.10;83.28;100162.16;6290660;28;20044;-71
2022/06/28 04:46:57;;;;;;;3.55;2.35;;;;;;;21.23;81.89;100162.56;6298320;28;20057;-70
2022/06/28 04:49:58;;;;;;;2.83;2.35;;;;;;;21.31;81.83;100167.03;6298824;28;20041;-70
2022/06/28 04:53:01;;;;;;;5.93;2.87;;;;;;;21.35;81.99;100165.75;6282096;28;20129;-70
2022/06/28 04:56:02;;;;;;;5.45;2.50;;;;;;;21.56;81.81;100168.00;6303850;28;20051;-70
2022/06/28 04:59:02;;;;;;;8.10;2.70;;;;;;;21.74;82.79;100165.19;6301894;28;20368;-70
2022/06/28 05:02:03;;;;;;;3.90;2.60;;;;;;;21.78;81.15;100155.09;6281909;28;20128;-70
2022/06/28 05:05:06;;;;;;;6.88;2.55;;;;;;;21.91;80.00;100144.84;6298447;28;20047;-71
2022/06/28 05:08:07;;;;;;;5.65;2.70;;;;;;;22.04;80.85;100139.84;6299281;28;20036;-71
2022/06/28 05:11:11;;;;;;;7.57;2.70;;;;;;;22.19;79.13;100142.66;6309664;28;20141;-71
2022/06/28 05:14:12;;;;;;;4.45;2.20;;;;;;;22.28;81.99;100133.72;6323667;28;20122;-71
2022/06/28 05:17:13;;;;;;;9.97;2.40;;;;;;;22.31;79.68;100138.69;6281656;28;20040;-70
2022/06/28 05:20:13;;;;;;;7.93;2.53;;;;;;;22.49;80.62;100143.00;6298170;28;20097;-70
2022/06/28 05:23:14;;;;;;;7.30;3.07;;;;;;;22.62;77.81;100148.63;6313619;28;20052;-71
2022/06/28 05:26:15;;;;;;;7.03;2.23;;;;;;;22.69;79.31;100159.41;6324384;28;20068;-70
2022/06/28 05:29:16;;;;;;;6.43;2.67;;;;;;;22.77;76.17;100163.88;6323089;28;20082;-70
2022/06/28 05:32:17;;;;;;;3.83;2.60;;;;;;;22.89;78.18;100166.00;6306206;28;20074;-70
2022/06/28 05:35:20;;;;;;;6.83;2.87;;;;;;;22.99;74.90;100154.34;6305942;28;20039;-71
2022/06/28 05:38:21;;;;;;;10.13;2.60;;;;;;;23.07;79.05;100162.31;6298081;28;20063;-71
2022/06/28 05:41:22;;;;;;;2.58;2.17;;;;;;;23.17;76.67;100159.47;6300179;28;20155;-70
2022/06/28 05:44:23;;;;;;;8.27;2.25;;;;;;;23.37;72.65;100165.19;6297591;28;20043;-70
2022/06/28 05:47:25;;;;;;;2.45;1.98;;;;;;;23.54;70.25;100162.25;6296265;28;20075;-70
2022/06/28 05:50:26;;;;;;;4.60;2.00;;;;;;;23.83;70.58;100179.44;6281123;28;20036;-70
2022/06/28 05:53:27;;;;;;;4.30;2.20;;;;;;;23.98;69.07;100182.16;6314373;28;20040;-71
2022/06/28 05:56:29;;;;;;;7.55;2.40;;;;;;;24.14;67.98;100187.34;6323827;28;20101;-71
2022/06/28 05:59:32;;;;;;;4.30;2.17;;;;;;;24.25;67.65;100193.28;6305525;28;20055;-71
2022/06/28 06:02:33;;;;;;;10.48;2.33;;;;;;;24.38;64.60;100192.66;6323327;28;20036;-71
2022/06/28 06:05:34;;;;;;;6.75;2.05;;;;;;;24.52;65.59;100197.22;6323467;28;20119;-71
2022/06/28 06:08:36;;;;;;;4.28;2.25;;;;;;;24.63;65.60;100202.13;6311432;28;20506;-71
2022/06/28 06:11:36;;;;;;;5.50;2.30;;;;;;;24.88;65.40;100212.56;6288347;28;20074;-71
2022/06/28 06:14:37;;;;;;;6.38;2.65;;;;;;;25.07;65.15;100222.69;6280245;28;20467;-71
2022/06/28 06:17:38;;;;;;;5.88;2.35;;;;;;;25.36;63.07;100212.22;6304327;28;20105;-71
2022/06/28 06:20:39;;;;;;;5.03;2.50;;;;;;;25.63;61.46;100216.03;6298022;28;20123;-71
2022/06/28 06:23:40;;;;;;;3.20;2.42;;;;;;;25.92;59.72;100221.31;6305964;28;20048;-71
2022/06/28 06:26:42;;;;;;;4.22;2.10;;;;;;;26.08;58.63;100217.56;6310571;28;20036;-71
2022/06/28 06:29:45;;;;;;;5.13;1.95;;;;;;;26.23;55.76;100225.53;6308703;28;20097;-70
2022/06/28 06:32:46;;;;;;;7.57;2.28;;;;;;;26.47;54.81;100226.13;6322683;28;20505;-71
2022/06/28 06:35:47;;;;;;;4.47;2.22;;;;;;;26.79;54.26;100234.63;6320856;28;20055;-70
2022/06/28 06:38:49;;;;;;;4.85;2.10;;;;;;;26.95;53.60;100242.34;6322308;28;20040;-71
2022/06/28 06:41:49;;;;;;;6.50;2.00;;;;;;;27.21;53.16;100249.72;6322051;28;20048;-70
2022/06/28 06:44:51;;;;;;;4.38;1.73;;;;;;;27.38;49.52;100246.75;6323859;28;20064;-70
2022/06/28 06:47:52;;;;;;;5.38;2.08;;;;;;;27.69;50.51;100249.75;6312498;28;20047;-70
2022/06/28 06:50:52;;;;;;;7.30;2.03;;;;;;;27.95;50.58;100250.91;6295746;28;20047;-71
2022/06/28 06:53:53;;;;;;;8.57;2.38;;;;;;;28.12;52.94;100260.22;6342802;28;20047;-71
2022/06/28 06:56:54;;;;;;;9.95;2.65;;;;;;;28.36;51.18;100259.84;6295283;28;20054;-71
2022/06/28 06:59:58;;;;;;;8.77;2.50;;;;;;;28.48;52.47;100260.91;6328916;28;20112;-71
2022/06/28 07:02:59;;;;;;;7.97;2.63;;;;;;;28.42;52.46;100259.84;6303633;28;20486;-71
2022/06/28 07:05:59;;;;;;;5.18;2.25;;;;;;;28.55;50.00;100259.06;6294885;28;20040;-72
2022/06/28 07:09:01;;;;;;;8.90;2.40;;;;;;;28.27;49.55;100243.94;6321404;28;20040;-71
2022/06/28 07:12:03;;;;;;;7.78;2.30;;;;;;;28.55;48.26;100244.81;6321259;28;20040;-72
2022/06/28 07:15:04;;;;;;;5.95;2.00;;;;;;;29.07;48.17;100241.22;6303380;28;20144;-71
2022/06/28 07:18:07;;;;;;;11.48;2.28;;;;;;;29.42;46.29;100235.56;6321766;28;20485;-71
2022/06/28 07:21:09;;;;;;;6.35;2.10;;;;;;;29.56;44.99;100233.63;6326754;28;20036;-72
2022/06/28 07:24:12;;;;;;;6.60;2.30;;;;;;;29.61;47.56;100227.63;6321519;28;20044;-71
2022/06/28 07:27:14;;;;;;;13.48;2.85;;;;;;;29.56;50.81;100233.63;6303204;28;20044;-71
2022/06/28 07:30:15;;;;;;;6.63;2.00;;;;;;;29.67;48.12;100226.75;6290932;28;20048;-72
2022/06/28 07:33:16;;;;;;;2.53;2.08;;;;;;;29.82;45.59;100221.97;6303149;28;20058;-71
2022/06/28 07:36:16;;;;;;;7.53;2.42;;;;;;;29.46;45.16;100217.16;6299987;28;20039;-71
2022/06/28 07:39:18;;;;;;;10.32;2.33;;;;;;;30.13;45.98;100215.75;6290710;28;20040;-72
2022/06/28 07:42:19;;;;;;;6.95;2.10;;;;;;;30.25;43.50;100212.34;6326770;28;20050;-70
2022/06/28 07:45:20;;;;;;;4.10;2.20;;;;;;;30.24;44.07;100208.81;6328054;28;20048;-72
2022/06/28 07:48:22;;;;;;;8.55;2.20;;;;;;;30.52;44.39;100213.00;6311492;28;20466;-71
2022/06/28 07:54:42;;;;;;;3.83;1.90;;;;;;;30.90;41.08;100202.06;6320883;28;20046;-71
2022/06/28 07:57:43;;;;;;;10.00;2.15;;;;;;;30.97;42.90;100198.47;6302649;28;20048;-72
2022/06/28 08:00:44;;;;;;;6.20;2.00;;;;;;;31.07;43.83;100199.63;6320598;28;20055;-72
2022/06/28 08:03:45;;;;;;;5.43;1.80;;;;;;;31.32;40.40;100186.03;6320770;28;20069;-71
2022/06/28 08:06:46;;;;;;;;;;;;;;;31.50;39.21;100181.66;6309350;28;20039;-72
2022/06/28 08:09:47;;;;;;;3.75;1.63;;;;;;;31.31;36.42;100170.91;6327137;28;19923;-72
2022/06/28 08:12:48;;;;;;;;;;;;;;;31.67;37.88;100171.06;6328461;28;20044;-71
2022/06/28 08:15:49;;;;;;;;;;;;;;;31.83;38.91;100165.00;6309192;28;19920;-72
2022/06/28 08:18:50;;;;;;;5.22;1.60;;;;;;;31.99;39.12;100149.22;6327644;28;19926;-71
2022/06/28 08:21:51;;;;;;;;;;;;;;;32.19;36.74;100157.03;6346207;28;20036;-71
2022/06/28 08:24:52;;;;;;;1.63;1.30;;;;;;;32.22;37.73;100149.25;6345728;28;20014;-72
2022/06/28 08:27:53;;;;;;;;;;;;;;;32.31;35.89;100144.34;6286041;28;20093;-71
2022/06/28 08:30:53;;;;;;;2.23;1.40;;;;;;;32.42;36.66;100146.22;6302419;28;19920;-72
2022/06/28 08:33:54;;;;;;;;;;;;;;;32.64;40.26;100148.34;6286079;28;20036;-71
2022/06/28 08:36:55;;;;;;;3.73;1.47;;;;;;;32.82;35.82;100133.84;6320569;28;19927;-71
2022/06/28 08:39:56;;;;;;;5.00;1.42;;;;;;;32.95;33.70;100135.47;6302288;28;20052;-72
2022/06/28 08:42:59;;;;;;;5.53;1.80;;;;;;;32.89;36.81;100135.38;6320297;28;20044;-71
2022/06/28 08:46:02;;;;;;;6.30;1.52;;;;;;;33.11;36.56;100134.72;6331488;28;20051;-71
2022/06/28 08:49:28;;;;;;;2.05;1.60;;;;;;;33.10;36.82;100135.81;6327337;28;20440;-71
2022/06/28 08:52:34;;;;;;;2.42;1.63;;;;;;;33.16;35.07;100134.03;6337124;28;20059;-71
2022/06/28 08:55:37;;;;;;;4.78;1.70;;;;;;;33.15;35.70;100132.38;6317586;28;20040;-72
2022/06/28 08:58:42;;;;;;;7.97;1.60;;;;;;;32.96;33.25;100116.31;6340002;28;20068;-71
2022/06/28 09:01:43;;;;;;;4.30;1.60;;;;;;;33.06;33.35;100121.09;6345231;28;20406;-71
2022/06/28 09:04:53;;;;;;;6.43;1.77;;;;;;;33.31;40.42;100112.69;6320513;28;20048;-69
2022/06/28 09:07:58;;;;;;;3.33;1.65;;;;;;;33.65;34.47;100116.31;6319829;28;20535;-69
2022/06/28 09:10:59;;;;;;;5.50;1.80;;;;;;;33.53;32.24;100110.91;6301993;28;20059;-69
2022/06/28 09:13:59;;;;;;;3.65;1.90;;;;;;;33.57;32.75;100102.34;6302147;28;20455;-69
2022/06/28 09:17:17;;;;;;;2.05;1.48;;;;;;;33.77;32.46;100096.44;6319495;28;20044;-69
2022/06/28 09:20:18;;;;;;;3.78;1.65;;;;;;;33.94;32.11;100102.69;6319805;28;20040;-69
2022/06/28 09:23:28;;;;;;;3.08;1.63;;;;;;;33.69;31.00;100098.53;6305130;28;20036;-70
2022/06/28 09:26:29;;;;;;;1.67;1.50;;;;;;;34.03;34.26;100103.91;6324089;28;20036;-69
2022/06/28 09:29:44;;;;;;;5.15;1.60;;;;;;;33.85;33.80;100096.03;6289721;28;20040;-69
2022/06/28 09:32:45;;;;;;;3.08;1.40;;;;;;;34.16;32.11;100108.19;6324671;28;20071;-69
2022/06/28 09:35:51;;;;;;;4.05;1.55;;;;;;;33.74;32.32;100103.19;6289516;28;20039;-70
2022/06/28 09:38:56;;;;;;;3.45;1.55;;;;;;;34.16;34.77;100113.59;6305806;28;20091;-69
2022/06/28 09:41:57;;;;;;;4.70;1.60;;;;;;;34.45;31.87;100105.34;6289776;28;20044;-68
2022/06/28 09:45:06;;;;;;;8.60;1.73;;;;;;;34.30;31.37;100105.94;6323896;28;20063;-69
2022/06/28 09:48:08;;;;;;;3.50;1.65;;;;;;;34.65;29.90;100118.38;6323833;28;20040;-69
2022/06/28 09:51:09;;;;;;;3.42;1.55;;;;;;;34.88;31.63;100115.41;6305698;28;20044;-69
2022/06/28 09:54:11;;;;;;;3.55;1.60;;;;;;;34.88;31.35;100110.00;6305807;28;20082;-72
2022/06/28 09:57:13;;;;;;;2.97;1.60;;;;;;;34.82;32.32;100108.31;6323829;28;20044;-72
2022/06/28 10:00:20;;;;;;;3.90;1.60;;;;;;;34.60;31.63;100108.25;6323580;28;20051;-72
2022/06/28 10:03:21;;;;;;;6.75;1.73;;;;;;;35.08;34.01;100108.59;6323560;28;20044;-72
2022/06/28 10:06:23;;;;;;;4.00;1.90;;;;;;;35.31;30.04;100102.91;6323282;28;20040;-69
2022/06/28 10:09:24;;;;;;;2.00;1.40;;;;;;;35.21;31.08;100102.81;6305294;28;20040;-69
2022/06/28 10:15:54;;;;;;;3.70;1.60;;;;;;;35.36;27.17;100115.69;6323584;28;20067;-69
2022/06/28 10:19:00;;;;;;;5.05;1.38;;;;;;;35.46;30.60;100107.66;6323171;28;20517;-69
2022/06/28 10:22:01;;;;;;;4.43;1.67;;;;;;;35.35;28.70;100102.38;6322982;28;20066;-69
2022/06/28 10:25:12;;;;;;;5.85;2.10;;;;;;;35.70;27.89;100104.63;6304902;28;20051;-69
2022/06/28 10:28:26;;;;;;;;;;;;;;;35.02;29.73;100107.69;6323262;28;20046;-71
2022/06/28 10:31:28;;;;;;;3.75;1.50;;;;;;;35.14;28.71;100104.84;6304746;28;19927;-69
2022/06/28 10:34:52;;;;;;;2.88;1.67;;;;;;;35.84;29.25;100100.38;6322476;28;20490;-70
2022/06/28 10:38:08;;;;;;;5.32;1.70;;;;;;;36.05;28.43;100100.53;6322598;28;20044;-70
2022/06/28 10:41:13;;;;;;;6.50;1.63;;;;;;;36.40;28.56;100102.66;6304356;28;20040;-70
2022/06/28 10:44:20;;;;;;;2.10;1.50;;;;;;;36.18;26.30;100091.97;6322417;28;20406;-70
2022/06/28 10:47:21;;;;;;;4.03;1.70;;;;;;;36.45;28.64;100100.00;6322015;28;20456;-69
2022/06/28 10:50:22;;;;;;;9.73;2.00;;;;;;;36.57;28.64;100091.63;6304376;28;20065;-70
2022/06/28 10:53:24;;;;;;;5.28;1.88;;;;;;;37.03;27.46;100093.72;6304393;28;20044;-71
2022/06/28 10:56:25;;;;;;;2.30;1.50;;;;;;;37.15;34.52;100090.75;6304055;28;20044;-70
2022/06/28 10:59:38;;;;;;;4.97;1.63;;;;;;;37.06;30.00;100085.00;6322293;28;20410;-70
2022/06/28 11:02:57;;;;;;;5.85;1.77;;;;;;;37.29;27.65;100078.25;6321923;28;20093;-70
2022/06/28 11:05:58;;;;;;;5.82;1.75;;;;;;;37.03;26.70;100083.63;6321959;28;20036;-70
2022/06/28 11:09:03;;;;;;;4.63;1.48;;;;;;;37.12;28.11;100081.22;6303774;28;20109;-70
2022/06/28 11:12:19;;;;;;;5.53;1.88;;;;;;;37.02;25.12;100081.19;6303689;28;20490;-70
2022/06/28 11:15:25;;;;;;;4.95;1.45;;;;;;;36.72;25.56;100084.66;6321749;28;20486;-70
2022/06/28 11:18:26;;;;;;;3.95;1.80;;;;;;;36.93;29.93;100086.34;6321630;28;20044;-70
2022/06/28 11:21:28;;;;;;;6.05;1.88;;;;;;;36.91;27.13;100083.88;6286934;28;20047;-70
2022/06/28 11:24:30;;;;;;;2.80;1.60;;;;;;;36.91;26.68;100081.16;6287258;28;20048;-70
2022/06/28 11:27:33;;;;;;;9.55;2.20;;;;;;;37.11;27.55;100071.47;6320705;28;20035;-70
2022/06/28 11:30:40;;;;;;;10.05;1.80;;;;;;;36.30;26.42;100072.72;6328513;28;20039;-70
2022/06/28 11:33:41;;;;;;;3.53;1.80;;;;;;;36.76;29.40;100066.72;6328349;28;20088;-70
2022/06/28 11:36:44;;;;;;;4.75;1.63;;;;;;;37.45;26.95;100055.41;6328352;28;20048;-70
2022/06/28 11:39:45;;;;;;;4.43;1.77;;;;;;;36.86;28.78;100074.88;6328219;28;20039;-69
2022/06/28 11:42:49;;;;;;;2.30;1.52;;;;;;;35.72;26.52;100059.03;6328009;28;20501;-70
2022/06/28 11:45:51;;;;;;;6.75;1.92;;;;;;;35.43;27.07;100059.31;6345308;28;20414;-71
2022/06/28 11:48:52;;;;;;;3.13;1.90;;;;;;;35.56;26.94;100059.97;6346192;28;20398;-70
2022/06/28 11:51:54;;;;;;;2.78;1.60;;;;;;;34.64;29.19;100057.13;6328188;28;20040;-70
2022/06/28 11:54:57;;;;;;;2.20;1.88;;;;;;;34.87;30.42;100056.84;6328104;28;20047;-70
2022/06/28 11:58:31;;;;;;;3.90;1.83;;;;;;;35.68;31.02;100049.78;6295231;28;20047;-70
2022/06/28 12:01:39;;;;;;;3.40;1.75;;;;;;;36.05;26.76;100055.19;6291268;28;20458;-70
2022/06/28 12:04:40;;;;;;;5.45;2.08;;;;;;;36.21;25.48;100060.75;6327824;28;20051;-70
2022/06/28 12:07:43;;;;;;;3.22;1.67;;;;;;;36.69;29.53;100056.91;6345779;28;20478;-70
2022/06/28 12:10:45;;;;;;;3.53;1.80;;;;;;;37.01;26.43;100052.38;6328035;28;20455;-69
2022/06/28 12:13:47;;;;;;;3.75;2.13;;;;;;;36.06;25.73;100047.88;6311046;28;20051;-70
2022/06/28 12:16:59;;;;;;;4.28;1.60;;;;;;;35.33;28.04;100047.56;6327699;28;20086;-70
2022/06/28 12:20:07;;;;;;;3.35;1.83;;;;;;;34.97;27.91;100036.38;6318734;28;20053;-69
2022/06/28 12:23:08;;;;;;;2.33;1.70;;;;;;;34.43;30.50;100045.19;6326666;28;20048;-70
2022/06/28 12:26:09;;;;;;;4.53;2.03;;;;;;;34.97;27.92;100042.59;6295284;28;20040;-70
2022/06/28 12:29:14;;;;;;;2.85;1.58;;;;;;;35.52;29.10;100040.66;6302674;28;20047;-70
2022/06/28 12:32:16;;;;;;;7.07;1.60;;;;;;;35.08;28.51;100035.38;6331164;28;20047;-69
2022/06/28 12:35:18;;;;;;;3.40;1.70;;;;;;;34.96;28.40;100035.53;6289664;28;20044;-70
2022/06/28 12:38:18;;;;;;;5.22;2.03;;;;;;;35.17;26.95;100028.47;6320085;28;20447;-70
2022/06/28 12:41:19;;;;;;;5.13;1.80;;;;;;;35.15;27.20;100030.63;6305817;28;20048;-70
2022/06/28 12:44:20;;;;;;;8.32;2.00;;;;;;;35.69;27.32;100032.44;6305427;28;20492;-70
2022/06/28 12:47:21;;;;;;;5.15;1.80;;;;;;;35.72;26.76;100023.75;6308355;28;20054;-70
2022/06/28 12:50:22;;;;;;;2.63;1.95;;;;;;;36.08;26.71;100032.16;6325631;28;20475;-70
2022/06/28 12:53:22;;;;;;;6.18;1.50;;;;;;;36.09;26.77;100028.31;6309230;28;20047;-70
2022/06/28 12:56:24;;;;;;;3.67;1.65;;;;;;;36.00;26.57;100021.78;6290063;28;20044;-70
2022/06/28 12:59:25;;;;;;;5.57;1.75;;;;;;;36.22;26.72;100027.06;6344561;28;20051;-70
2022/06/28 13:02:25;;;;;;;4.22;1.63;;;;;;;36.67;28.53;100029.19;6312822;28;20047;-71
2022/06/28 13:05:26;;;;;;;4.78;1.88;;;;;;;36.44;27.07;100033.13;6314481;28;20048;-70
2022/06/28 13:08:28;;;;;;;8.75;1.80;;;;;;;36.38;25.07;100023.34;6314567;28;20044;-70
2022/06/28 13:11:28;;;;;;;3.95;1.50;;;;;;;36.01;28.72;100018.78;6349404;28;20092;-70
2022/06/28 13:14:29;;;;;;;2.30;1.80;;;;;;;35.75;25.75;100028.69;6298062;28;20079;-70
2022/06/28 13:17:30;;;;;;;10.48;1.70;;;;;;;34.85;27.06;100023.78;6297942;28;20067;-70
2022/06/28 13:20:32;;;;;;;2.97;1.88;;;;;;;34.32;27.33;100017.97;6331512;28;20044;-71
2022/06/28 13:23:35;;;;;;;2.63;1.90;;;;;;;34.49;30.02;100019.81;6331398;28;20047;-71
2022/06/28 13:26:36;;;;;;;3.70;1.70;;;;;;;34.88;27.70;100003.47;6331728;28;20044;-71
2022/06/28 13:29:37;;;;;;;3.88;2.00;;;;;;;34.68;27.98;100007.59;6314733;28;20066;-71
2022/06/28 13:32:38;;;;;;;1.90;1.60;;;;;;;34.60;28.37;99997.19;6331071;28;20460;-70
2022/06/28 13:35:43;;;;;;;4.82;1.75;;;;;;;34.49;26.95;99995.41;6331154;28;20044;-70
2022/06/28 13:38:44;;;;;;;4.63;2.13;;;;;;;34.28;27.45;99994.38;6313882;28;20593;-70
2022/06/28 13:41:45;;;;;;;3.15;1.80;;;;;;;34.14;27.20;99993.09;6314093;28;20062;-71
2022/06/28 13:44:46;;;;;;;7.00;1.90;;;;;;;34.34;26.48;99989.84;6313788;28;20509;-70
2022/06/28 13:47:48;;;;;;;3.97;2.00;;;;;;;34.40;25.54;99988.84;6330607;28;20413;-70
2022/06/28 13:50:48;;;;;;;2.65;1.83;;;;;;;34.52;25.12;99984.91;6348797;28;20039;-70
2022/06/28 13:53:51;;;;;;;6.72;1.80;;;;;;;34.48;25.07;99977.56;6297022;28;20116;-70
2022/06/28 13:56:57;;;;;;;4.60;2.00;;;;;;;34.39;25.71;99979.91;6315746;28;20050;-70
2022/06/28 13:59:58;;;;;;;7.00;1.90;;;;;;;34.33;26.42;99972.78;6330578;28;20490;-70
2022/06/28 14:02:59;;;;;;;2.53;1.88;;;;;;;34.21;26.81;99982.91;6313619;28;20047;-70
2022/06/28 14:05:59;;;;;;;3.25;1.58;;;;;;;34.49;25.96;99971.88;6330413;28;20100;-70
2022/06/28 14:09:00;;;;;;;3.17;1.90;;;;;;;34.58;26.09;99966.84;6312582;28;20039;-70
2022/06/28 14:12:01;;;;;;;4.53;2.00;;;;;;;34.43;26.11;99958.53;6330102;28;20043;-71
2022/06/28 14:15:04;;;;;;;4.43;1.88;;;;;;;34.57;25.26;99958.94;6313335;28;20545;-70
2022/06/28 14:18:05;;;;;;;4.10;1.80;;;;;;;34.40;25.99;99953.63;6348163;28;20043;-70
2022/06/28 14:21:06;;;;;;;10.77;1.95;;;;;;;34.55;25.41;99958.38;6313348;28;20046;-70
2022/06/28 14:24:07;;;;;;;4.07;2.00;;;;;;;34.52;25.94;99954.31;6279660;28;20055;-70